Albany, New York
Current Conditions -  °F | °C
As of 5:51 PM on Thursday 23 Oct 2014 (Local Time) from KALB Reporting Station
Overcast Overcast  
Wind Chill: 44°   Ceiling: 1200
Heat Index: 47°   Visibility: 10mi
Dew Point: 44°   Wind: 7mph
Humidity: 90%   Direction: 360°N
Pressure: 29.83"   Gusts: NA
Location:  42.65°N, 73.75°W
Report Text: KALB 232151Z 36006KT 10SM FEW007 BKN012 OVC020 08/07 A2983 RMK AO2 RAE15DZB15E24 SLP103 P0000 T00830067 $
Loading
Personal Weather Stations






























Interactive Weather Map
Tropical Storm Tracking
New forecast layout! Learn more

10-Day Weather Forecast

Advertisements
Track Severe Weather on mobile